KPIM/PIM METAR and TAF weather

Enter ICAO airport designator
Station Type Date Time Source
KPIM METAR 2020/01/18 12:55 UTC NOAA

KPIM 181255Z AUTO 10008KT 10SM OVC028 08/02 A3040 RMK AO2 T00750020


Station Type Date Time Source
KPIM Decoded METAR 2020/01/18 12:55 UTC NOAA

Station name not available
Jan 18, 2020 - 07:55 AM EST / 2020.01.18 1255 UTC
Wind: from the E (100 degrees) at 9 MPH (8 KT):0
Visibility: 10 mile(s):0
Sky conditions: overcast
Temperature: 45.5 F (7.5 C)
Dew Point: 35.6 F (2.0 C)
Relative Humidity: 68%
Pressure (altimeter): 30.4 in. Hg (1029 hPa)
ob: KPIM 181255Z AUTO 10008KT 10SM OVC028 08/02 A3040 RMK AO2 T00750020
cycle: 13

Station Type Date Time Source
KPIM TAF UTC NOAA

Error!

Example: see airport list